createdAt,value
2019-06-20T00:00:29.909Z,17.90
2019-06-20T00:03:01.501Z,18.07
2019-06-20T00:05:33.986Z,18.00
2019-06-20T00:08:05.965Z,18.73
2019-06-20T00:10:37.761Z,17.00
2019-06-20T00:13:10.357Z,17.20
2019-06-20T00:15:41.943Z,18.20
2019-06-20T00:18:13.789Z,18.17
2019-06-20T00:20:45.255Z,18.90
2019-06-20T00:23:16.595Z,18.25
2019-06-20T00:25:48.201Z,19.70
2019-06-20T00:28:19.693Z,19.30
2019-06-20T00:30:50.950Z,18.20
2019-06-20T00:33:22.389Z,17.92
2019-06-20T00:35:54.186Z,18.98
2019-06-20T00:38:27.294Z,18.50
2019-06-20T00:40:58.673Z,19.35
2019-06-20T00:43:30.114Z,18.75
2019-06-20T00:46:01.444Z,20.40
2019-06-20T00:48:32.832Z,19.85
2019-06-20T00:51:04.488Z,20.27
2019-06-20T00:53:36.695Z,19.57
2019-06-20T00:56:08.302Z,20.00
2019-06-20T00:58:39.758Z,19.87
2019-06-20T01:01:11.085Z,19.62
2019-06-20T01:03:42.656Z,20.77
2019-06-20T01:06:14.056Z,20.75
2019-06-20T01:08:45.382Z,21.70
2019-06-20T01:11:17.094Z,20.77
2019-06-20T01:13:48.587Z,20.43
2019-06-20T01:16:20.029Z,20.85
2019-06-20T01:18:51.421Z,20.68
2019-06-20T01:21:22.726Z,21.10
2019-06-20T01:23:55.199Z,21.42
2019-06-20T01:26:26.513Z,21.50
2019-06-20T01:28:57.885Z,21.82
2019-06-20T01:31:29.168Z,21.85
2019-06-20T01:34:00.592Z,19.80
2019-06-20T01:36:31.935Z,21.33
2019-06-20T01:39:03.704Z,21.70
2019-06-20T01:41:36.859Z,22.13
2019-06-20T01:44:08.406Z,22.87
2019-06-20T01:46:39.927Z,23.12
2019-06-20T01:49:11.296Z,22.65
2019-06-20T01:51:42.664Z,21.85
2019-06-20T01:54:14.136Z,22.77
2019-06-20T01:56:45.462Z,23.02
2019-06-20T01:59:16.882Z,23.20
2019-06-20T02:01:48.216Z,21.75
2019-06-20T02:04:21.313Z,22.05
2019-06-20T02:06:52.697Z,22.35
2019-06-20T02:09:24.074Z,23.67
2019-06-20T02:11:55.492Z,23.32
2019-06-20T02:14:26.861Z,22.75
2019-06-20T02:16:58.374Z,22.65
2019-06-20T02:19:29.795Z,23.05
2019-06-20T02:22:01.102Z,22.20
2019-06-20T02:24:32.463Z,23.57
2019-06-20T02:27:04.018Z,23.77
2019-06-20T02:29:35.638Z,23.22
2019-06-20T02:32:07.193Z,24.37
2019-06-20T02:34:38.526Z,23.38
2019-06-20T02:37:10.442Z,23.70
2019-06-20T02:39:41.758Z,22.95
2019-06-20T02:42:13.138Z,23.47
2019-06-20T02:44:44.533Z,22.30
2019-06-20T02:47:15.937Z,21.48
2019-06-20T02:49:47.356Z,19.82
2019-06-20T02:52:18.876Z,19.98
2019-06-20T02:54:50.230Z,20.08
2019-06-20T02:57:21.751Z,20.80
2019-06-20T02:59:53.056Z,20.50
2019-06-20T03:02:24.445Z,19.12
2019-06-20T03:04:55.718Z,20.32
2019-06-20T03:07:27.142Z,21.00
2019-06-20T03:09:58.436Z,20.45
2019-06-20T03:12:29.921Z,20.27
2019-06-20T03:15:01.285Z,21.77
2019-06-20T03:17:32.740Z,21.35
2019-06-20T03:20:04.694Z,21.07
2019-06-20T03:22:36.562Z,20.45
2019-06-20T03:25:08.236Z,21.65
2019-06-20T03:27:39.721Z,21.57
2019-06-20T03:30:12.628Z,19.57
2019-06-20T03:32:43.991Z,19.80
2019-06-20T03:35:15.642Z,18.23
2019-06-20T03:37:50.142Z,17.70
2019-06-20T03:40:19.919Z,18.45
2019-06-20T03:42:51.273Z,18.02
2019-06-20T03:45:22.512Z,18.25
2019-06-20T03:47:53.929Z,18.52
2019-06-20T03:50:25.266Z,18.07
2019-06-20T03:53:02.694Z,18.67
2019-06-20T03:55:35.216Z,19.10
2019-06-20T03:58:06.812Z,18.67
2019-06-20T04:00:38.335Z,17.57
2019-06-20T04:03:10.666Z,17.30
2019-06-20T04:05:42.534Z,16.70
2019-06-20T04:08:13.911Z,16.27
2019-06-20T04:10:45.341Z,16.32
2019-06-20T04:13:16.740Z,16.50
2019-06-20T04:15:48.041Z,16.48
2019-06-20T04:18:19.387Z,15.00
2019-06-20T04:20:50.776Z,15.65
2019-06-20T04:23:22.100Z,15.53
2019-06-20T04:25:53.458Z,15.60
2019-06-20T04:28:24.909Z,14.87
2019-06-20T04:30:56.186Z,14.73
2019-06-20T04:33:27.675Z,14.30
2019-06-20T04:36:00.627Z,14.70
2019-06-20T04:38:31.939Z,14.83
2019-06-20T04:41:04.015Z,15.50
2019-06-20T04:43:35.707Z,14.90
2019-06-20T04:46:30.638Z,14.43
2019-06-20T04:49:01.990Z,15.45
2019-06-20T04:51:33.706Z,15.25
2019-06-20T04:54:05.196Z,16.12
2019-06-20T04:56:37.722Z,15.18
2019-06-20T04:59:09.405Z,15.40
2019-06-20T05:01:41.034Z,15.00
2019-06-20T05:04:12.342Z,14.63
2019-06-20T05:06:45.408Z,14.87
2019-06-20T05:09:16.812Z,14.83
2019-06-20T05:11:48.268Z,15.03
2019-06-20T05:14:19.660Z,14.68
2019-06-20T05:16:51.564Z,15.05
2019-06-20T05:19:23.126Z,14.45
2019-06-20T05:21:54.483Z,14.43
2019-06-20T05:24:25.968Z,14.03
2019-06-20T05:26:57.470Z,14.33
2019-06-20T05:29:28.873Z,13.55
2019-06-20T05:32:00.886Z,15.25
2019-06-20T05:34:32.338Z,13.98
2019-06-20T05:37:04.038Z,14.80
2019-06-20T05:39:35.693Z,15.18
2019-06-20T05:42:07.037Z,15.43
2019-06-20T05:44:39.042Z,16.10
2019-06-20T05:47:13.465Z,15.18
2019-06-20T05:49:43.457Z,15.83
2019-06-20T05:52:14.758Z,15.60
2019-06-20T05:54:46.170Z,16.20
2019-06-20T05:57:17.608Z,15.20
2019-06-20T05:59:48.952Z,14.85
2019-06-20T06:02:20.338Z,14.15
2019-06-20T06:04:51.710Z,14.35
2019-06-20T06:07:23.184Z,14.28
2019-06-20T06:09:54.647Z,14.33
2019-06-20T06:12:26.047Z,15.75
2019-06-20T06:15:00.763Z,15.65
2019-06-20T06:17:30.371Z,16.15
2019-06-20T06:20:03.324Z,16.82
2019-06-20T06:22:34.953Z,17.45
2019-06-20T06:25:07.016Z,16.52
2019-06-20T06:27:38.441Z,16.17
2019-06-20T06:30:11.026Z,16.23
2019-06-20T06:32:42.424Z,17.37
2019-06-20T06:35:14.391Z,18.40
2019-06-20T06:37:46.658Z,17.75
2019-06-20T06:40:18.314Z,18.27
2019-06-20T06:42:49.764Z,17.10
2019-06-20T06:45:22.416Z,17.55
2019-06-20T06:47:53.762Z,18.45
2019-06-20T06:50:26.153Z,18.42
2019-06-20T06:52:57.608Z,19.92
2019-06-20T06:55:28.909Z,20.02
2019-06-20T06:58:00.316Z,20.75
2019-06-20T07:00:31.663Z,19.80
2019-06-20T07:03:03.542Z,20.62
2019-06-20T07:05:36.671Z,19.60
2019-06-20T07:08:08.301Z,19.75
2019-06-20T07:10:39.667Z,19.10
2019-06-20T07:13:11.065Z,19.15
2019-06-20T07:15:42.482Z,19.35
2019-06-20T07:18:13.964Z,19.15
2019-06-20T07:20:45.518Z,19.35
2019-06-20T07:23:16.990Z,19.15
2019-06-20T07:25:48.416Z,20.10
2019-06-20T07:28:19.984Z,20.77
2019-06-20T07:30:52.254Z,19.87
2019-06-20T07:33:23.711Z,19.52
2019-06-20T07:35:55.057Z,20.02
2019-06-20T07:38:26.424Z,20.45
2019-06-20T07:40:57.728Z,19.52
2019-06-20T07:43:29.115Z,19.65
2019-06-20T07:46:02.945Z,20.60
2019-06-20T07:48:34.099Z,20.90
2019-06-20T07:51:05.389Z,19.90
2019-06-20T07:53:37.567Z,23.52
2019-06-20T07:56:09.577Z,24.65
2019-06-20T07:58:40.914Z,25.97
2019-06-20T08:01:12.294Z,23.77
2019-06-20T08:03:45.241Z,22.22
2019-06-20T08:06:16.850Z,21.35
2019-06-20T08:08:48.204Z,21.68
2019-06-20T08:11:19.546Z,24.20
2019-06-20T08:13:50.992Z,23.67
2019-06-20T08:16:23.457Z,22.30
2019-06-20T08:18:54.741Z,24.57
2019-06-20T08:21:27.064Z,22.95
2019-06-20T08:24:01.120Z,22.52
2019-06-20T08:26:32.470Z,25.97
2019-06-20T08:29:16.218Z,26.33
2019-06-20T08:31:37.970Z,26.57
2019-06-20T08:34:10.608Z,25.90
2019-06-20T08:36:41.954Z,26.42
2019-06-20T08:39:13.602Z,25.32
2019-06-20T08:41:45.099Z,24.07
2019-06-20T08:44:16.388Z,23.22
2019-06-20T08:46:47.842Z,22.80
2019-06-20T08:49:19.236Z,22.93
2019-06-20T08:51:50.602Z,22.45
2019-06-20T08:54:21.919Z,23.55
2019-06-20T08:56:54.538Z,24.95
2019-06-20T08:59:26.230Z,22.60
2019-06-20T09:01:58.807Z,23.57
2019-06-20T09:04:31.006Z,24.47
2019-06-20T09:09:35.770Z,23.55
2019-06-20T09:12:07.128Z,23.92
2019-06-20T09:14:38.581Z,25.60
2019-06-20T09:17:10.181Z,24.87
2019-06-20T09:19:41.734Z,24.27
2019-06-20T09:22:13.122Z,24.98
2019-06-20T09:24:44.498Z,27.60
2019-06-20T09:27:15.879Z,27.52
2019-06-20T09:29:47.536Z,24.65
2019-06-20T09:32:18.920Z,23.92
2019-06-20T09:34:51.524Z,25.60
2019-06-20T09:37:25.856Z,27.10
2019-06-20T09:39:57.323Z,26.12
2019-06-20T09:42:28.626Z,27.27
2019-06-20T09:45:00.017Z,27.58
2019-06-20T09:47:38.730Z,28.35
2019-06-20T09:50:11.582Z,29.72
2019-06-20T09:52:43.056Z,26.35
2019-06-20T09:55:14.574Z,25.92
2019-06-20T09:57:49.187Z,28.10
2019-06-20T10:00:20.980Z,28.70
2019-06-20T10:02:54.032Z,28.00
2019-06-20T10:05:25.997Z,24.63
2019-06-20T10:07:57.390Z,27.67
2019-06-20T10:10:32.662Z,24.47
2019-06-20T10:13:04.590Z,25.90
2019-06-20T10:15:38.358Z,24.45
2019-06-20T10:18:10.708Z,24.85
2019-06-20T10:20:42.145Z,27.25
2019-06-20T10:23:13.490Z,25.27
2019-06-20T10:25:47.764Z,25.40
2019-06-20T10:28:25.210Z,26.60
2019-06-20T10:30:57.862Z,26.73
2019-06-20T10:33:29.606Z,27.30
2019-06-20T10:36:01.169Z,25.97
2019-06-20T10:38:32.491Z,25.45
2019-06-20T10:41:04.978Z,24.80
2019-06-20T10:43:37.302Z,24.32
2019-06-20T10:46:09.112Z,23.77
2019-06-20T10:48:42.498Z,26.48
2019-06-20T10:51:34.646Z,24.95
2019-06-20T10:54:08.269Z,22.25
2019-06-20T10:56:42.231Z,24.98
2019-06-20T10:59:14.792Z,22.85
2019-06-20T11:01:46.628Z,23.67
2019-06-20T11:04:18.761Z,22.35
2019-06-20T11:06:50.266Z,22.37
2019-06-20T11:09:24.317Z,21.37
2019-06-20T11:11:55.822Z,21.82
2019-06-20T11:14:27.325Z,21.87
2019-06-20T11:16:59.957Z,21.00
2019-06-20T11:19:32.750Z,22.73
2019-06-20T11:22:08.247Z,22.62
2019-06-20T11:24:40.816Z,23.60
2019-06-20T11:27:12.345Z,21.65
2019-06-20T11:29:49.008Z,22.07
2019-06-20T11:32:20.299Z,21.52
2019-06-20T11:34:51.774Z,22.58
2019-06-20T11:37:23.231Z,21.57
2019-06-20T11:39:56.266Z,19.90
2019-06-20T11:42:28.231Z,20.48
2019-06-20T11:45:00.927Z,20.40
2019-06-20T11:47:32.248Z,22.20
2019-06-20T11:50:04.752Z,20.75
2019-06-20T11:52:42.038Z,20.85
2019-06-20T11:55:10.025Z,19.82
2019-06-20T11:57:41.485Z,18.75
2019-06-20T12:00:13.458Z,19.00
2019-06-20T12:02:46.094Z,19.15
2019-06-20T12:05:19.059Z,19.80
2019-06-20T12:07:51.335Z,17.60
2019-06-20T12:10:24.812Z,16.50
2019-06-20T12:12:56.226Z,17.55
2019-06-20T12:15:27.685Z,17.45
2019-06-20T12:17:59.023Z,17.12
2019-06-20T12:20:30.375Z,18.85
2019-06-20T12:23:01.760Z,18.75
2019-06-20T12:25:33.841Z,18.20
2019-06-20T12:28:05.283Z,17.87
2019-06-20T12:30:38.365Z,18.75
2019-06-20T12:33:11.240Z,18.75
2019-06-20T12:35:42.744Z,18.65
2019-06-20T12:38:15.261Z,18.17
2019-06-20T12:40:46.812Z,12.60
2019-06-20T12:43:18.737Z,10.25
2019-06-20T12:45:50.151Z,8.60
2019-06-20T12:48:21.516Z,8.50
2019-06-20T12:50:52.930Z,8.40
2019-06-20T12:53:25.293Z,9.05
2019-06-20T12:55:57.330Z,8.13
2019-06-20T12:58:28.666Z,8.18
2019-06-20T13:01:00.087Z,9.15
2019-06-20T13:03:31.327Z,11.38
2019-06-20T13:06:04.320Z,13.95
2019-06-20T13:08:36.175Z,16.73
2019-06-20T13:11:07.509Z,14.80
2019-06-20T13:13:40.220Z,19.02
2019-06-20T13:16:12.887Z,17.80
2019-06-20T13:18:44.624Z,20.55
2019-06-20T13:21:18.915Z,20.45
2019-06-20T13:23:49.641Z,19.07
2019-06-20T13:26:21.945Z,13.58
2019-06-20T13:29:03.524Z,17.95
2019-06-20T13:31:26.364Z,18.80
2019-06-20T13:57:08.636Z,17.82
2019-06-20T13:59:40.305Z,21.25
2019-06-20T14:02:12.833Z,20.65
2019-06-20T14:04:44.489Z,22.77
2019-06-20T14:07:15.858Z,27.70
2019-06-20T14:09:47.237Z,23.98
2019-06-20T14:12:18.727Z,29.10
2019-06-20T14:14:50.342Z,35.45
2019-06-20T14:17:21.783Z,35.70
2019-06-20T14:19:53.190Z,38.20
2019-06-20T14:22:24.509Z,25.27
2019-06-20T14:24:55.884Z,37.83
2019-06-20T14:27:27.257Z,30.02
2019-06-20T14:29:58.704Z,30.32
2019-06-20T14:32:30.138Z,31.65
2019-06-20T14:35:01.405Z,44.00
2019-06-20T14:37:32.860Z,37.95
2019-06-20T14:40:04.586Z,39.20
2019-06-20T14:42:36.026Z,36.88
2019-06-20T14:45:08.822Z,42.75
2019-06-20T14:47:40.138Z,40.03
2019-06-20T14:50:12.345Z,29.50
2019-06-20T14:52:44.605Z,28.77
2019-06-20T14:55:16.857Z,28.30
2019-06-20T14:57:48.510Z,39.88
2019-06-20T15:00:23.487Z,33.65
2019-06-20T15:02:58.372Z,38.65
2019-06-20T15:05:27.869Z,39.98
2019-06-20T15:07:59.228Z,50.43
2019-06-20T15:10:30.667Z,37.55
2019-06-20T15:13:02.130Z,31.25
2019-06-20T15:15:33.482Z,31.33
2019-06-20T15:18:04.940Z,31.87
2019-06-20T15:20:36.214Z,39.92
2019-06-20T15:23:07.625Z,37.93
2019-06-20T15:25:38.982Z,26.23
2019-06-20T15:28:10.424Z,31.50
2019-06-20T15:30:41.775Z,30.72
2019-06-20T15:33:13.659Z,20.95
2019-06-20T15:35:45.037Z,33.40
2019-06-20T15:38:16.384Z,36.00
2019-06-20T15:40:49.395Z,29.40
2019-06-20T15:43:20.673Z,23.15
2019-06-20T15:45:52.169Z,19.82
2019-06-20T15:48:23.547Z,26.02
2019-06-20T15:50:54.979Z,23.55
2019-06-20T15:53:26.393Z,26.07
2019-06-20T15:55:57.821Z,28.85
2019-06-20T15:58:29.372Z,30.37
2019-06-20T16:01:00.736Z,28.38
2019-06-20T16:03:32.121Z,23.52
2019-06-20T16:06:03.518Z,26.93
2019-06-20T16:08:34.842Z,21.57
2019-06-20T16:11:06.190Z,23.10
2019-06-20T16:13:37.537Z,20.30
2019-06-20T16:16:08.948Z,22.00
2019-06-20T16:18:40.293Z,18.25
2019-06-20T16:21:11.645Z,18.82
2019-06-20T16:23:42.983Z,19.52
2019-06-20T16:26:14.442Z,18.45
2019-06-20T16:28:45.764Z,19.15
2019-06-20T16:31:26.305Z,17.32
2019-06-20T16:33:50.080Z,19.42
2019-06-20T16:36:21.736Z,16.75
2019-06-20T16:38:53.176Z,15.38
2019-06-20T16:41:24.704Z,15.30
2019-06-20T16:43:56.159Z,15.55
2019-06-20T16:46:27.572Z,16.73
2019-06-20T16:48:59.056Z,19.20
2019-06-20T16:51:30.373Z,24.72
2019-06-20T16:54:01.696Z,21.17
2019-06-20T16:56:33.038Z,20.25
2019-06-20T16:59:05.773Z,21.48
2019-06-20T17:01:37.113Z,19.42
2019-06-20T17:04:08.559Z,20.10
2019-06-20T17:06:39.898Z,14.25
2019-06-20T17:09:11.244Z,14.98
2019-06-20T17:11:42.661Z,16.27
2019-06-20T17:14:13.991Z,19.35
2019-06-20T17:16:45.401Z,20.20
2019-06-20T17:19:16.763Z,22.60
2019-06-20T17:21:48.208Z,19.82
2019-06-20T17:24:19.664Z,14.93
2019-06-20T17:26:51.064Z,16.70
2019-06-20T17:29:22.501Z,18.02
2019-06-20T17:31:57.275Z,23.02
2019-06-20T17:34:26.913Z,22.22
2019-06-20T17:36:58.294Z,21.82
2019-06-20T17:39:29.654Z,16.45
2019-06-20T17:42:01.246Z,17.60
2019-06-20T17:44:32.603Z,15.68
2019-06-20T17:47:03.949Z,17.30
2019-06-20T17:49:35.296Z,21.02
2019-06-20T17:52:06.703Z,19.95
2019-06-20T17:54:38.013Z,20.43
2019-06-20T17:57:09.433Z,23.05
2019-06-20T17:59:40.805Z,24.25
2019-06-20T18:02:12.644Z,22.35
2019-06-20T18:04:47.045Z,22.93
2019-06-20T18:07:18.368Z,23.47
2019-06-20T18:09:53.422Z,24.07
2019-06-20T18:12:22.661Z,26.65
2019-06-20T18:14:54.162Z,27.58
2019-06-20T18:17:25.603Z,30.90
2019-06-20T18:19:57.123Z,27.27
2019-06-20T18:22:28.462Z,24.87
2019-06-20T18:24:59.824Z,29.80
2019-06-20T18:27:31.255Z,29.50
2019-06-20T18:30:02.608Z,32.75
2019-06-20T18:32:34.031Z,34.58
2019-06-20T18:35:05.984Z,29.60
2019-06-20T18:37:37.447Z,26.75
2019-06-20T18:40:09.516Z,24.57
2019-06-20T18:42:40.879Z,25.27
2019-06-20T18:45:12.481Z,26.57
2019-06-20T18:47:43.834Z,26.95
2019-06-20T18:50:16.741Z,31.02
2019-06-20T18:52:52.075Z,29.12
2019-06-20T18:55:21.194Z,26.93
2019-06-20T18:57:52.508Z,22.67
2019-06-20T19:00:34.107Z,25.23
2019-06-20T19:02:57.279Z,25.50
2019-06-20T19:05:28.599Z,33.28
2019-06-20T19:08:00.237Z,26.93
2019-06-20T19:10:33.520Z,28.32
2019-06-20T19:13:05.619Z,29.48
2019-06-20T19:15:37.061Z,26.05
2019-06-20T19:18:08.414Z,30.80
2019-06-20T19:20:39.894Z,31.80
2019-06-20T19:23:11.576Z,41.08
2019-06-20T19:25:42.928Z,35.80
2019-06-20T19:28:14.697Z,29.42
2019-06-20T19:30:51.145Z,39.78
2019-06-20T19:33:23.107Z,32.38
2019-06-20T19:35:54.528Z,29.67
2019-06-20T19:38:25.898Z,37.53
2019-06-20T19:40:57.254Z,32.85
2019-06-20T19:43:28.563Z,39.65
2019-06-20T19:45:59.893Z,33.50
2019-06-20T19:48:31.215Z,27.07
2019-06-20T19:51:02.535Z,29.82
2019-06-20T19:53:33.929Z,32.67
2019-06-20T19:56:05.488Z,32.48
2019-06-20T19:58:36.860Z,30.32
2019-06-20T20:01:08.336Z,40.08
2019-06-20T20:03:39.698Z,39.05
2019-06-20T20:06:11.054Z,29.35
2019-06-20T20:08:42.585Z,27.10
2019-06-20T20:11:14.048Z,22.07
2019-06-20T20:13:45.436Z,24.90
2019-06-20T20:16:16.767Z,26.15
2019-06-20T20:18:48.123Z,23.95
2019-06-20T20:21:19.581Z,28.38
2019-06-20T20:23:50.944Z,28.35
2019-06-20T20:26:22.325Z,30.97
2019-06-20T20:28:53.693Z,32.30
2019-06-20T20:31:25.275Z,23.22
2019-06-20T20:33:56.703Z,25.30
2019-06-20T20:36:28.092Z,27.10
2019-06-20T20:38:59.541Z,24.15
2019-06-20T20:41:30.917Z,23.57
2019-06-20T20:44:02.256Z,25.95
2019-06-20T20:46:33.744Z,25.60
2019-06-20T20:49:05.144Z,24.43
2019-06-20T20:51:37.444Z,28.42
2019-06-20T20:54:08.876Z,28.67
2019-06-20T20:56:40.242Z,26.70
2019-06-20T20:59:11.666Z,25.60
2019-06-20T21:01:43.130Z,21.68
2019-06-20T21:04:15.519Z,25.70
2019-06-20T21:06:46.874Z,26.05
2019-06-20T21:09:18.216Z,20.68
2019-06-20T21:11:49.951Z,21.62
2019-06-20T21:14:21.673Z,17.77
2019-06-20T21:16:53.017Z,17.20
2019-06-20T21:19:24.446Z,19.12
2019-06-20T21:21:55.999Z,21.00
2019-06-20T21:24:27.775Z,19.98
2019-06-20T21:26:59.124Z,19.15
2019-06-20T21:29:30.736Z,22.25
2019-06-20T21:32:02.506Z,18.40
2019-06-20T21:34:33.985Z,20.10
2019-06-20T21:37:05.288Z,24.00
2019-06-20T21:39:38.743Z,21.68
2019-06-20T21:42:27.082Z,21.05
2019-06-20T21:44:58.448Z,18.57
2019-06-20T21:47:29.937Z,19.67
2019-06-20T21:50:07.062Z,20.97
2019-06-20T21:52:38.509Z,21.80
2019-06-20T21:55:10.177Z,22.15
2019-06-20T21:57:41.531Z,24.10
2019-06-20T22:00:17.196Z,21.15
2019-06-20T22:02:49.816Z,19.80
2019-06-20T22:05:21.362Z,19.37
2019-06-20T22:07:52.696Z,17.75
2019-06-20T22:10:41.617Z,16.97
2019-06-20T22:13:13.952Z,16.48
2019-06-20T22:15:48.339Z,15.25
2019-06-20T22:18:19.684Z,13.85
2019-06-20T22:20:51.153Z,13.75
2019-06-20T22:23:28.483Z,16.00
2019-06-20T22:25:59.811Z,15.20
2019-06-20T22:28:31.085Z,18.32
2019-06-20T22:31:02.639Z,14.78
2019-06-20T22:33:33.943Z,16.25
2019-06-20T22:36:36.128Z,14.10
2019-06-20T22:38:56.156Z,17.15
2019-06-20T22:41:27.520Z,16.60
2019-06-20T22:43:58.838Z,17.05
2019-06-20T22:47:00.118Z,17.55
2019-06-20T22:49:31.400Z,18.98
2019-06-20T22:52:02.862Z,19.10
2019-06-20T22:54:34.198Z,14.53
2019-06-20T22:57:05.568Z,17.17
2019-06-20T22:59:49.150Z,15.90
2019-06-20T23:02:20.674Z,18.42
2019-06-20T23:04:51.995Z,21.48
2019-06-20T23:07:41.010Z,18.60
2019-06-20T23:10:12.394Z,18.20
2019-06-20T23:12:43.831Z,18.57
2019-06-20T23:15:15.612Z,18.77
2019-06-20T23:17:46.931Z,15.78
2019-06-20T23:20:18.603Z,18.20
2019-06-20T23:22:50.163Z,17.10
2019-06-20T23:25:21.588Z,17.98
2019-06-20T23:27:53.092Z,16.85
2019-06-20T23:30:24.797Z,17.05
2019-06-20T23:32:56.218Z,17.07
2019-06-20T23:35:28.074Z,17.75
2019-06-20T23:37:59.390Z,18.10
2019-06-20T23:40:30.730Z,18.98
2019-06-20T23:43:02.234Z,17.67
2019-06-20T23:45:33.972Z,15.90
2019-06-20T23:48:05.477Z,17.20
2019-06-20T23:50:37.845Z,16.65
2019-06-20T23:53:28.075Z,16.62
2019-06-20T23:55:59.516Z,15.78
2019-06-20T23:58:30.812Z,18.10
